Time;durP1;ratioP1;P1;durP2;ratioP2;P2;SDS_P1;SDS_P2;PMS_P1;PMS_P2;Temp;Humidity;BMP_temperature;BMP_pressure;BME280_temperature;BME280_humidity;BME280_pressure;Samples;Min_cycle;Max_cycle;Signal;HPM_P1;HPM_P2
2022/02/07 00:03:58;;;;;;;0.68;0.32;;;22.30;32.20;;;;;;4991741;28;20477;-54
2022/02/07 00:06:24;;;;;;;1.13;0.40;;;22.20;32.20;;;;;;5034412;28;20048;-57
2022/02/07 00:08:51;;;;;;;1.73;0.50;;;22.20;32.20;;;;;;5037177;28;20024;-58
2022/02/07 00:11:18;;;;;;;1.23;0.65;;;22.20;32.20;;;;;;5039186;28;20029;-57
2022/02/07 00:13:45;;;;;;;1.90;0.45;;;22.20;32.20;;;;;;5050260;28;20017;-60
2022/02/07 00:16:11;;;;;;;1.55;0.60;;;22.20;32.20;;;;;;5039784;28;20381;-55
2022/02/07 00:18:38;;;;;;;1.85;0.68;;;22.20;32.20;;;;;;5041841;28;20025;-57
2022/02/07 00:21:04;;;;;;;1.73;0.63;;;22.20;32.20;;;;;;5038526;28;20072;-58
2022/02/07 00:23:30;;;;;;;1.73;0.60;;;22.10;32.10;;;;;;5047269;28;20032;-52
2022/02/07 00:25:56;;;;;;;1.13;0.45;;;22.20;32.20;;;;;;5043946;28;20040;-57
2022/02/07 00:28:22;;;;;;;1.20;0.43;;;22.20;32.20;;;;;;5038891;28;20048;-59
2022/02/07 00:30:48;;;;;;;1.83;0.50;;;22.20;32.20;;;;;;5036331;28;20036;-57
2022/02/07 00:33:14;;;;;;;1.08;0.50;;;22.20;32.20;;;;;;5036198;28;20029;-56
2022/02/07 00:35:40;;;;;;;1.13;0.40;;;22.20;32.10;;;;;;5039126;28;20021;-55
2022/02/07 00:38:15;;;;;;;2.03;0.55;;;22.20;32.00;;;;;;5041278;28;20035;-60
2022/02/07 00:41:00;;;;;;;0.60;0.38;;;22.20;32.00;;;;;;5035123;28;20336;-56
2022/02/07 00:43:33;;;;;;;0.80;0.40;;;22.20;32.00;;;;;;5032787;28;20421;-54
2022/02/07 00:46:11;;;;;;;1.58;0.47;;;22.10;31.90;;;;;;5052894;28;20021;-55
2022/02/07 00:48:38;;;;;;;1.17;0.50;;;22.10;31.80;;;;;;5028549;28;20037;-53
2022/02/07 00:51:05;;;;;;;0.73;0.38;;;22.10;31.80;;;;;;5031603;28;20021;-54
2022/02/07 00:53:33;;;;;;;0.55;0.30;;;22.10;31.80;;;;;;5045337;28;20031;-58
2022/02/07 00:55:59;;;;;;;0.50;0.35;;;22.10;31.70;;;;;;5036188;28;20095;-52
2022/02/07 00:58:25;;;;;;;0.90;0.45;;;22.10;31.70;;;;;;5044669;28;20048;-54
2022/02/07 01:00:52;;;;;;;0.75;0.35;;;22.10;31.70;;;;;;5027157;28;20031;-55
2022/02/07 01:03:22;;;;;;;1.80;0.43;;;22.10;31.70;;;;;;5034026;28;21839;-52
2022/02/07 01:05:51;;;;;;;1.38;0.43;;;22.00;31.60;;;;;;5020554;28;20356;-57
2022/02/07 01:08:25;;;;;;;1.20;0.43;;;22.00;31.60;;;;;;5033103;28;20381;-53
2022/02/07 01:11:03;;;;;;;0.45;0.30;;;22.00;31.70;;;;;;5020733;28;20032;-56
2022/02/07 01:13:50;;;;;;;1.23;0.40;;;22.00;31.70;;;;;;5027839;28;20620;-55
2022/02/07 01:52:16;;;;;;;1.33;0.40;;;21.90;31.80;;;;;;5023817;28;20061;-57
2022/02/07 01:54:49;;;;;;;0.88;0.40;;;21.80;31.80;;;;;;5024172;28;20090;-56
2022/02/07 01:57:20;;;;;;;1.48;0.40;;;21.80;31.80;;;;;;5033067;28;20025;-51
2022/02/07 01:59:48;;;;;;;1.83;0.63;;;21.80;31.90;;;;;;5039952;28;20071;-55
2022/02/07 02:02:15;;;;;;;1.13;0.38;;;21.80;32.00;;;;;;5028777;28;20070;-52
2022/02/07 02:04:41;;;;;;;0.70;0.40;;;21.80;32.00;;;;;;5027622;28;20125;-57
2022/02/07 02:07:11;;;;;;;2.05;0.50;;;21.80;32.00;;;;;;5029209;28;20053;-54
2022/02/07 02:09:37;;;;;;;1.40;0.68;;;21.80;32.10;;;;;;5028836;28;20088;-56
2022/02/07 02:12:09;;;;;;;1.67;0.60;;;21.80;32.00;;;;;;5014207;28;20349;-57
2022/02/07 02:20:43;;;;;;;1.63;0.50;;;21.80;32.10;;;;;;5031628;28;20026;-59
2022/02/07 02:32:38;;;;;;;1.77;0.50;;;21.80;32.10;;;;;;5013784;28;20057;-58
2022/02/07 02:47:17;;;;;;;;;;;21.70;32.20;;;;;;5027609;28;20348;-52
2022/02/07 02:49:48;;;;;;;0.88;0.40;;;21.60;32.20;;;;;;5013671;28;20264;-57
2022/02/07 02:52:14;;;;;;;1.20;0.47;;;21.60;32.30;;;;;;5044352;28;20029;-54
2022/02/07 02:54:40;;;;;;;1.75;0.50;;;21.60;32.40;;;;;;5014795;28;20080;-55
2022/02/07 02:57:06;;;;;;;1.40;0.60;;;21.60;32.30;;;;;;5019972;28;20026;-57
2022/02/07 02:59:32;;;;;;;2.75;0.85;;;21.60;32.30;;;;;;5044119;28;20072;-56
2022/02/07 03:01:58;;;;;;;1.50;0.70;;;21.60;32.40;;;;;;5030127;28;20105;-55
2022/02/07 03:04:25;;;;;;;2.08;0.60;;;21.60;32.40;;;;;;5019132;28;20038;-57
2022/02/07 03:06:50;;;;;;;2.15;0.38;;;21.60;32.30;;;;;;5022928;28;20488;-58
2022/02/07 03:09:17;;;;;;;1.58;0.70;;;21.60;32.40;;;;;;5020115;28;20045;-58
2022/02/07 03:11:46;;;;;;;1.33;0.40;;;21.60;32.40;;;;;;5030980;28;20026;-56
2022/02/07 03:14:22;;;;;;;2.65;0.70;;;21.60;32.50;;;;;;5026258;28;20476;-58
2022/02/07 03:16:50;;;;;;;1.65;0.52;;;21.60;32.50;;;;;;5021492;28;20021;-58
2022/02/07 03:19:19;;;;;;;2.20;0.60;;;21.50;32.40;;;;;;5029304;28;20049;-59
2022/02/07 03:21:48;;;;;;;2.05;0.73;;;21.60;32.50;;;;;;5049172;28;20441;-56
2022/02/07 03:24:15;;;;;;;2.28;0.75;;;21.50;32.40;;;;;;5029513;28;20452;-53
2022/02/07 03:27:02;;;;;;;1.58;0.55;;;21.50;32.40;;;;;;5025042;28;20088;-56
2022/02/07 03:29:32;;;;;;;1.83;0.60;;;21.50;32.40;;;;;;5023466;28;20490;-50
2022/02/07 03:31:58;;;;;;;1.63;0.55;;;21.50;32.40;;;;;;5031737;28;20058;-59
2022/02/07 03:34:36;;;;;;;0.90;0.50;;;21.50;32.40;;;;;;5017502;28;20018;-50
2022/02/07 03:37:04;;;;;;;1.65;0.85;;;21.50;32.40;;;;;;5018718;28;20022;-52
2022/02/07 03:39:32;;;;;;;1.35;0.60;;;21.50;33.10;;;;;;5017600;28;20445;-53
2022/02/07 03:41:59;;;;;;;1.38;0.50;;;21.50;32.40;;;;;;5019112;28;20049;-53
2022/02/07 03:44:25;;;;;;;2.28;0.65;;;21.50;33.10;;;;;;5018748;28;20041;-53
2022/02/07 03:46:51;;;;;;;2.60;0.57;;;21.40;32.40;;;;;;5019350;28;20018;-55
2022/02/07 03:49:21;;;;;;;1.83;0.60;;;21.50;32.40;;;;;;5021232;28;20112;-57
2022/02/07 03:51:47;;;;;;;1.58;0.60;;;21.50;32.50;;;;;;5032902;28;20171;-57
2022/02/07 03:54:16;;;;;;;1.30;0.73;;;21.50;32.50;;;;;;5025596;28;20182;-59
2022/02/07 03:56:45;;;;;;;1.20;0.43;;;21.40;32.40;;;;;;5030972;28;20021;-58
2022/02/07 03:59:11;;;;;;;2.53;0.70;;;21.40;32.40;;;;;;5031752;28;20353;-57
2022/02/07 04:01:37;;;;;;;2.45;0.70;;;21.40;32.40;;;;;;5023487;28;20441;-59
2022/02/07 04:04:04;;;;;;;1.20;0.40;;;21.40;32.40;;;;;;5022445;28;20515;-57
2022/02/07 04:06:30;;;;;;;1.77;0.60;;;21.40;32.40;;;;;;5032330;28;20100;-54
2022/02/07 04:09:08;;;;;;;4.15;0.57;;;21.40;32.40;;;;;;5033826;28;20036;-56
2022/02/07 04:11:54;;;;;;;1.70;0.60;;;21.40;32.40;;;;;;5024205;28;20182;-57
2022/02/07 04:14:23;;;;;;;1.45;0.50;;;21.40;32.40;;;;;;5030630;28;20364;-55
2022/02/07 04:16:57;;;;;;;1.85;0.70;;;21.40;32.50;;;;;;5027925;28;20097;-59
2022/02/07 04:19:33;;;;;;;3.85;0.85;;;21.40;32.40;;;;;;5032008;28;20083;-57
2022/02/07 04:22:05;;;;;;;1.50;0.65;;;21.40;32.40;;;;;;5040602;28;20034;-55
2022/02/07 04:24:51;;;;;;;1.75;0.80;;;21.40;32.40;;;;;;5025758;28;20319;-54
2022/02/07 04:27:21;;;;;;;1.48;0.60;;;21.30;32.40;;;;;;5024685;28;20036;-53
2022/02/07 04:29:47;;;;;;;2.17;0.70;;;21.30;32.40;;;;;;5018547;28;20025;-56
2022/02/07 04:32:14;;;;;;;1.30;0.50;;;21.30;32.30;;;;;;5024105;28;20080;-55
2022/02/07 04:34:41;;;;;;;1.08;0.50;;;21.30;32.30;;;;;;5017316;28;20034;-58
2022/02/07 04:37:07;;;;;;;1.38;0.55;;;21.30;32.30;;;;;;5024707;28;20022;-55
2022/02/07 04:39:34;;;;;;;1.63;0.60;;;21.30;32.30;;;;;;5015459;28;20029;-50
2022/02/07 04:42:19;;;;;;;1.33;0.60;;;21.30;32.30;;;;;;5027768;28;20096;-56
2022/02/07 04:45:02;;;;;;;3.03;0.85;;;21.30;32.30;;;;;;5031795;28;20030;-57
2022/02/07 04:50:27;;;;;;;1.70;0.68;;;21.30;32.40;;;;;;5029144;28;20025;-58
2022/02/07 05:01:30;;;;;;;1.73;0.63;;;21.30;32.40;;;;;;5024301;28;20318;-55
2022/02/07 05:03:46;;;;;;;2.00;0.73;;;21.30;32.50;;;;;;5016282;28;20040;-54
2022/02/07 05:14:47;;;;;;;1.27;0.55;;;21.20;32.50;;;;;;5017291;28;20040;-51
2022/02/07 05:17:16;;;;;;;2.25;0.60;;;21.20;32.50;;;;;;5021330;28;20087;-54
2022/02/07 05:20:11;;;;;;;1.95;0.70;;;21.20;32.50;;;;;;5019209;28;20026;-57
2022/02/07 05:23:03;;;;;;;1.25;0.63;;;21.20;32.50;;;;;;5016298;28;20029;-53
2022/02/07 05:25:44;;;;;;;2.10;0.80;;;21.20;32.50;;;;;;5025447;28;20036;-52
2022/02/07 05:28:22;;;;;;;1.58;0.60;;;21.20;32.50;;;;;;5015300;28;20026;-55
2022/02/07 05:31:15;;;;;;;2.38;0.90;;;21.20;32.50;;;;;;5010194;28;20440;-54
2022/02/07 05:34:00;;;;;;;2.85;0.95;;;21.20;33.20;;;;;;5015264;28;20080;-56
2022/02/07 05:36:47;;;;;;;1.77;0.60;;;21.20;32.50;;;;;;5023026;28;20036;-51
2022/02/07 05:39:38;;;;;;;1.73;0.70;;;21.20;32.50;;;;;;5029265;28;20018;-55
2022/02/07 05:42:19;;;;;;;2.85;0.70;;;21.20;32.50;;;;;;5025665;28;20444;-55
2022/02/07 05:45:08;;;;;;;1.92;0.70;;;21.20;32.50;;;;;;5030668;28;20190;-59
2022/02/07 05:47:54;;;;;;;4.43;0.82;;;21.20;32.50;;;;;;5018643;28;20036;-59
2022/02/07 05:50:35;;;;;;;1.30;0.50;;;21.20;32.50;;;;;;5029246;28;20120;-51
2022/02/07 05:53:18;;;;;;;1.80;0.65;;;21.20;32.60;;;;;;5027210;28;20076;-58
2022/02/07 05:56:08;;;;;;;1.75;0.80;;;21.20;32.60;;;;;;5013941;28;20029;-57
2022/02/07 05:58:43;;;;;;;0.77;0.40;;;21.10;32.50;;;;;;5013794;28;20042;-54
2022/02/07 06:01:36;;;;;;;1.58;0.60;;;21.10;32.60;;;;;;5024313;28;20357;-57
2022/02/07 06:04:02;;;;;;;0.85;0.38;;;21.10;32.60;;;;;;5022222;28;20034;-57
2022/02/07 06:06:29;;;;;;;2.47;0.60;;;21.10;32.60;;;;;;5014310;28;20028;-56
2022/02/07 06:08:55;;;;;;;2.25;0.88;;;21.10;32.60;;;;;;5030024;28;20424;-56
2022/02/07 06:11:23;;;;;;;3.08;1.00;;;21.10;32.60;;;;;;5021933;28;20117;-54
2022/02/07 06:13:51;;;;;;;1.98;0.70;;;21.10;32.60;;;;;;5024154;28;20040;-60
2022/02/07 06:16:18;;;;;;;2.70;0.90;;;21.10;32.60;;;;;;5023838;28;20037;-57
2022/02/07 06:18:48;;;;;;;2.30;0.90;;;21.10;32.60;;;;;;5015061;28;20028;-56
2022/02/07 06:21:16;;;;;;;2.17;0.68;;;21.10;32.60;;;;;;5016467;28;20024;-57
2022/02/07 06:23:42;;;;;;;2.00;0.65;;;21.10;32.60;;;;;;5017909;28;20034;-56
2022/02/07 06:26:19;;;;;;;0.95;0.50;;;21.10;32.60;;;;;;5016104;28;20437;-58
2022/02/07 06:28:48;;;;;;;1.15;0.40;;;21.10;32.70;;;;;;5023690;28;20009;-54
2022/02/07 06:31:14;;;;;;;2.03;0.70;;;21.10;32.70;;;;;;5013660;28;20026;-56
2022/02/07 06:33:41;;;;;;;1.52;0.70;;;21.10;32.70;;;;;;5023697;28;20049;-59
2022/02/07 06:36:10;;;;;;;1.95;0.70;;;21.10;32.70;;;;;;5028206;28;20030;-58
2022/02/07 06:38:36;;;;;;;2.17;0.80;;;21.10;32.70;;;;;;5019162;28;20429;-50
2022/02/07 06:41:02;;;;;;;1.85;0.60;;;21.10;32.70;;;;;;5017174;28;20033;-56
2022/02/07 06:43:30;;;;;;;2.33;0.93;;;21.10;32.70;;;;;;5021107;28;20075;-56
2022/02/07 06:45:58;;;;;;;1.70;0.70;;;21.10;33.40;;;;;;5028431;28;20018;-50
2022/02/07 06:48:28;;;;;;;1.58;0.70;;;21.10;32.70;;;;;;5025918;28;20421;-56
2022/02/07 06:50:54;;;;;;;1.40;0.50;;;21.10;32.70;;;;;;5035611;28;20365;-56
2022/02/07 06:53:20;;;;;;;2.20;0.65;;;21.10;32.70;;;;;;5031710;28;20078;-56
2022/02/07 06:55:48;;;;;;;2.53;0.90;;;21.10;32.70;;;;;;5019569;28;20021;-54
2022/02/07 06:58:14;;;;;;;1.08;0.47;;;21.10;33.40;;;;;;5027310;28;20056;-58
2022/02/07 07:00:39;;;;;;;1.80;0.77;;;21.10;32.70;;;;;;5035470;28;20456;-54
2022/02/07 07:03:11;;;;;;;2.45;0.75;;;21.10;32.80;;;;;;5023943;28;20065;-57
2022/02/07 07:05:37;;;;;;;2.50;0.82;;;21.00;32.70;;;;;;5038179;28;20098;-55
2022/02/07 07:08:03;;;;;;;2.10;0.70;;;21.10;32.80;;;;;;5049768;28;20053;-54
2022/02/07 07:10:29;;;;;;;1.80;0.57;;;21.10;32.80;;;;;;5021507;28;20388;-53
2022/02/07 07:13:16;;;;;;;2.35;0.80;;;21.00;32.70;;;;;;5021352;28;20115;-59
2022/02/07 07:15:49;;;;;;;1.98;0.85;;;21.10;32.70;;;;;;5028609;28;20429;-54
2022/02/07 07:18:20;;;;;;;2.50;0.60;;;21.00;32.70;;;;;;5042434;28;20459;-56
2022/02/07 07:20:48;;;;;;;1.20;0.60;;;21.00;32.70;;;;;;5036899;28;20025;-54
2022/02/07 07:23:15;;;;;;;3.05;0.88;;;21.00;32.80;;;;;;5031492;28;20353;-53
2022/02/07 07:25:45;;;;;;;2.30;1.00;;;21.00;32.80;;;;;;5019540;28;20060;-57
2022/02/07 07:28:15;;;;;;;1.60;0.70;;;21.00;32.80;;;;;;5045124;28;20027;-56
2022/02/07 07:30:52;;;;;;;2.83;0.80;;;21.00;32.80;;;;;;5035100;28;20021;-56
2022/02/07 07:33:22;;;;;;;3.05;0.90;;;21.00;32.80;;;;;;5030810;28;20040;-53
2022/02/07 07:35:49;;;;;;;3.20;1.10;;;21.00;32.80;;;;;;5049810;28;20432;-52
2022/02/07 07:38:17;;;;;;;2.35;0.70;;;21.00;32.80;;;;;;5035314;28;20063;-57
2022/02/07 07:40:48;;;;;;;2.58;0.85;;;21.00;32.80;;;;;;5031247;28;20087;-52
2022/02/07 07:43:20;;;;;;;2.22;1.00;;;21.00;32.80;;;;;;5031543;28;20443;-54
2022/02/07 07:46:01;;;;;;;2.38;0.95;;;21.00;32.90;;;;;;5044195;28;20079;-56
2022/02/07 07:48:55;;;;;;;2.75;1.17;;;21.00;32.80;;;;;;5029632;28;20025;-55
2022/02/07 07:51:51;;;;;;;2.00;0.82;;;21.00;32.90;;;;;;5026987;28;20036;-58
2022/02/07 07:54:53;;;;;;;2.72;0.80;;;21.00;32.90;;;;;;5026029;28;20033;-57
2022/02/07 08:02:59;;;;;;;4.32;1.30;;;21.00;33.10;;;;;;5028753;28;20024;-50
2022/02/07 08:05:55;;;;;;;4.43;1.23;;;21.00;33.10;;;;;;5032833;28;20056;-59
2022/02/07 08:08:37;;;;;;;3.38;1.13;;;21.00;33.20;;;;;;5032766;28;20027;-59
2022/02/07 08:11:16;;;;;;;3.35;1.20;;;21.10;33.30;;;;;;5032113;28;20029;-58
2022/02/07 08:13:58;;;;;;;4.35;1.10;;;21.10;33.30;;;;;;5040681;28;20108;-57
2022/02/07 08:16:30;;;;;;;5.15;1.50;;;21.20;33.30;;;;;;5022004;28;20551;-58
2022/02/07 08:19:01;;;;;;;3.97;1.20;;;21.30;33.30;;;;;;5031645;28;20025;-58
2022/02/07 08:21:28;;;;;;;3.95;1.20;;;21.40;33.30;;;;;;5046637;28;20032;-57
2022/02/07 08:23:55;;;;;;;3.15;1.10;;;21.50;33.20;;;;;;5044766;28;20106;-59
2022/02/07 08:26:21;;;;;;;3.20;1.20;;;21.70;33.20;;;;;;5054051;28;20023;-55
2022/02/07 08:28:47;;;;;;;4.72;1.10;;;21.70;33.10;;;;;;5040993;28;20025;-56
2022/02/07 08:31:13;;;;;;;5.25;1.50;;;21.80;33.00;;;;;;5044386;28;20020;-56
2022/02/07 08:33:39;;;;;;;4.88;1.23;;;22.00;33.00;;;;;;5042567;28;20021;-53
2022/02/07 08:36:05;;;;;;;2.15;1.10;;;22.10;32.90;;;;;;5036199;28;20427;-55
2022/02/07 08:38:32;;;;;;;4.68;1.60;;;22.10;32.80;;;;;;5043359;28;20104;-54
2022/02/07 08:40:58;;;;;;;4.13;1.40;;;22.20;32.80;;;;;;5043528;28;20078;-52
2022/02/07 08:43:24;;;;;;;3.63;1.38;;;22.30;32.80;;;;;;5044612;28;20025;-52
2022/02/07 08:45:50;;;;;;;5.00;1.75;;;22.40;32.90;;;;;;5037408;28;20032;-52
2022/02/07 08:48:16;;;;;;;5.55;1.60;;;22.50;32.90;;;;;;5042944;28;20108;-54
2022/02/07 08:50:44;;;;;;;4.32;1.50;;;22.60;32.70;;;;;;5035868;28;20082;-49
2022/02/07 08:53:10;;;;;;;5.82;1.70;;;22.60;32.60;;;;;;5040538;28;20056;-50
2022/02/07 08:55:40;;;;;;;5.35;1.90;;;22.70;32.50;;;;;;5030402;28;20333;-57
2022/02/07 08:58:12;;;;;;;4.63;1.50;;;22.80;32.50;;;;;;5043726;28;20111;-52
2022/02/07 09:03:18;;;;;;;4.90;1.42;;;22.90;32.20;;;;;;5048691;28;20352;-52
2022/02/07 09:08:23;;;;;;;4.45;1.70;;;23.10;32.10;;;;;;5043418;28;20044;-58
2022/02/07 09:10:51;;;;;;;6.60;1.85;;;23.10;32.00;;;;;;5036523;28;20049;-52
2022/02/07 09:13:19;;;;;;;4.88;1.67;;;23.20;32.50;;;;;;5038306;28;20100;-53
2022/02/07 09:18:26;;;;;;;5.50;1.73;;;23.30;31.80;;;;;;5043227;28;20032;-51
2022/02/07 09:20:54;;;;;;;4.60;1.50;;;23.40;31.80;;;;;;5035485;28;20340;-54
2022/02/07 09:23:20;;;;;;;4.25;1.52;;;23.40;31.60;;;;;;5042109;28;20036;-52
2022/02/07 09:25:46;;;;;;;5.38;1.90;;;23.50;31.60;;;;;;5035547;28;20017;-54
2022/02/07 09:28:11;;;;;;;5.03;1.33;;;23.50;31.50;;;;;;5036136;28;20111;-55
2022/02/07 09:30:37;;;;;;;4.03;1.58;;;23.60;31.50;;;;;;5046838;28;20028;-52
2022/02/07 09:33:03;;;;;;;5.50;1.38;;;23.60;31.50;;;;;;5035292;28;20036;-55
2022/02/07 09:35:29;;;;;;;3.08;1.20;;;23.70;31.40;;;;;;5041132;28;20052;-55
2022/02/07 09:37:55;;;;;;;3.85;1.58;;;23.70;31.30;;;;;;5050664;28;20026;-52
2022/02/07 09:40:21;;;;;;;5.43;1.55;;;23.80;31.30;;;;;;5040632;28;20079;-53
2022/02/07 09:42:55;;;;;;;5.07;1.63;;;23.80;31.20;;;;;;5039278;28;20441;-58
2022/02/07 09:45:30;;;;;;;4.17;1.53;;;23.90;31.20;;;;;;5054920;28;20047;-52
2022/02/07 09:47:59;;;;;;;5.38;1.52;;;23.90;31.10;;;;;;5041156;28;20318;-53
2022/02/07 09:50:25;;;;;;;4.32;1.33;;;24.00;31.10;;;;;;5036432;28;20021;-53
2022/02/07 09:52:50;;;;;;;4.10;1.25;;;23.90;31.00;;;;;;5052815;28;20435;-48
2022/02/07 09:55:16;;;;;;;2.42;1.00;;;24.00;31.00;;;;;;5054576;28;20025;-51
2022/02/07 09:57:42;;;;;;;2.72;1.20;;;24.00;31.00;;;;;;5038599;28;20033;-51
2022/02/07 10:00:17;;;;;;;4.18;1.35;;;24.00;30.90;;;;;;5035639;28;20461;-51
2022/02/07 10:03:04;;;;;;;3.90;1.42;;;24.00;30.90;;;;;;5047069;28;20033;-56
2022/02/07 10:05:33;;;;;;;3.20;1.17;;;24.10;30.90;;;;;;5054424;28;20056;-50
2022/02/07 10:08:09;;;;;;;3.22;1.10;;;24.10;31.50;;;;;;5043181;28;20075;-55
2022/02/07 10:15:58;;;;;;;4.57;1.55;;;24.10;30.70;;;;;;5040773;28;20057;-53
2022/02/07 10:34:40;;;;;;;4.07;1.45;;;23.90;30.60;;;;;;5054805;28;20029;-56
2022/02/07 10:48:38;;;;;;;3.85;1.35;;;23.70;30.50;;;;;;5053907;28;20391;-52
2022/02/07 10:51:12;;;;;;;2.72;1.30;;;23.70;30.60;;;;;;5034919;28;20389;-54
2022/02/07 10:53:44;;;;;;;1.33;0.75;;;23.70;30.60;;;;;;5042325;28;20040;-54
2022/02/07 10:56:12;;;;;;;3.40;1.15;;;23.70;30.60;;;;;;5051836;28;20108;-48
2022/02/07 10:58:38;;;;;;;2.08;0.85;;;23.70;30.60;;;;;;5054807;28;20348;-58
2022/02/07 11:01:12;;;;;;;3.05;1.20;;;23.70;30.60;;;;;;5032183;28;20377;-50
2022/02/07 11:03:44;;;;;;;3.28;1.02;;;23.70;30.60;;;;;;5040888;28;20060;-54
2022/02/07 11:06:12;;;;;;;4.18;1.23;;;23.70;30.60;;;;;;5054259;28;20060;-56
2022/02/07 11:19:06;;;;;;;2.20;0.95;;;23.70;30.60;;;;;;5039643;28;19947;-54
2022/02/07 11:21:42;;;;;;;2.97;1.00;;;23.70;30.60;;;;;;5052581;28;20017;-50
2022/02/07 11:25:10;;;;;;;2.03;1.05;;;23.70;30.60;;;;;;5052303;28;20044;-48
2022/02/07 11:27:39;;;;;;;3.75;1.42;;;23.70;30.50;;;;;;5047541;28;20041;-53
2022/02/07 11:30:11;;;;;;;2.92;0.85;;;23.70;30.60;;;;;;5054788;28;20036;-55
2022/02/07 11:32:47;;;;;;;1.92;0.70;;;23.70;30.50;;;;;;5040245;28;20036;-50
2022/02/07 11:35:19;;;;;;;2.72;0.90;;;23.70;30.50;;;;;;5038432;28;20033;-54
2022/02/07 11:37:52;;;;;;;2.58;0.90;;;23.70;30.50;;;;;;5048410;28;20258;-52
2022/02/07 11:40:36;;;;;;;2.20;0.90;;;23.70;30.50;;;;;;5053809;28;20037;-54
2022/02/07 11:43:07;;;;;;;2.17;0.90;;;23.70;30.40;;;;;;5046683;28;20028;-52
2022/02/07 11:45:49;;;;;;;1.95;0.90;;;23.70;31.10;;;;;;5057635;28;20047;-50
2022/02/07 11:48:18;;;;;;;1.75;0.70;;;23.70;30.40;;;;;;5042079;28;20497;-57
2022/02/07 11:50:46;;;;;;;2.75;0.82;;;23.70;30.50;;;;;;5037249;28;20026;-52
2022/02/07 11:53:12;;;;;;;1.20;0.68;;;23.60;30.40;;;;;;5046201;28;20355;-53
2022/02/07 11:55:43;;;;;;;1.60;0.65;;;23.60;30.40;;;;;;5051091;28;20035;-54
2022/02/07 11:58:22;;;;;;;2.67;1.08;;;23.60;30.40;;;;;;5052333;28;20036;-53
2022/02/07 12:00:55;;;;;;;4.32;1.10;;;23.60;30.40;;;;;;5045270;28;20036;-49
2022/02/07 12:03:23;;;;;;;2.33;1.00;;;23.60;31.10;;;;;;5037094;28;20025;-53
2022/02/07 12:05:57;;;;;;;1.55;0.75;;;23.60;30.40;;;;;;5044134;28;20321;-57
2022/02/07 12:08:25;;;;;;;1.98;0.98;;;23.60;30.40;;;;;;5044313;28;20108;-51
2022/02/07 12:11:03;;;;;;;1.63;0.70;;;23.60;30.40;;;;;;5046234;28;20036;-49
2022/02/07 12:13:39;;;;;;;3.10;0.80;;;23.60;30.40;;;;;;5051558;28;20028;-57
2022/02/07 12:16:12;;;;;;;2.20;0.82;;;23.60;30.40;;;;;;5050714;28;20135;-55
2022/02/07 12:18:38;;;;;;;2.20;0.80;;;23.60;30.40;;;;;;5045151;28;20026;-53
2022/02/07 12:21:26;;;;;;;2.25;0.90;;;23.50;30.40;;;;;;5049515;28;20362;-53
2022/02/07 12:23:57;;;;;;;2.70;1.08;;;23.60;30.40;;;;;;5037361;28;20034;-51
2022/02/07 12:26:24;;;;;;;1.55;0.60;;;23.50;30.40;;;;;;5044713;28;20032;-54
2022/02/07 12:28:58;;;;;;;2.33;0.70;;;23.50;30.40;;;;;;5055552;28;20032;-52
2022/02/07 12:31:25;;;;;;;1.45;0.70;;;23.50;30.40;;;;;;5048197;28;20057;-57
2022/02/07 12:34:00;;;;;;;1.88;0.60;;;23.50;30.40;;;;;;5051785;28;20124;-57
2022/02/07 12:36:32;;;;;;;2.28;1.00;;;23.50;30.40;;;;;;5039892;28;20444;-53
2022/02/07 12:38:59;;;;;;;2.72;0.80;;;23.50;30.40;;;;;;5046263;28;20098;-58
2022/02/07 12:41:29;;;;;;;2.60;0.52;;;23.50;30.40;;;;;;5052858;28;20040;-57
2022/02/07 12:43:56;;;;;;;4.57;0.93;;;23.40;30.40;;;;;;5034241;28;20060;-57
2022/02/07 12:46:25;;;;;;;1.75;0.80;;;23.40;30.40;;;;;;5051208;28;20044;-56
2022/02/07 12:48:57;;;;;;;1.25;0.60;;;23.40;30.40;;;;;;5055013;28;20328;-59
2022/02/07 12:51:26;;;;;;;2.15;0.90;;;23.40;30.40;;;;;;5048319;28;20108;-54
2022/02/07 12:53:53;;;;;;;2.25;0.70;;;23.40;30.40;;;;;;5055674;28;20397;-55
2022/02/07 12:56:20;;;;;;;3.28;0.55;;;23.40;30.40;;;;;;5042496;28;20035;-58
2022/02/07 12:58:47;;;;;;;2.80;0.80;;;23.40;30.40;;;;;;5035728;28;20056;-54
2022/02/07 13:01:16;;;;;;;2.40;0.80;;;23.40;30.40;;;;;;5037304;28;20064;-48
2022/02/07 13:04:08;;;;;;;3.13;0.98;;;23.40;30.40;;;;;;5037011;28;20030;-54
2022/02/07 13:06:37;;;;;;;2.95;0.95;;;23.40;30.30;;;;;;5043014;28;20080;-53
2022/02/07 13:09:18;;;;;;;2.10;0.70;;;23.40;30.30;;;;;;5037666;28;20053;-55
2022/02/07 13:11:48;;;;;;;1.83;0.57;;;23.40;30.20;;;;;;5048371;28;20042;-56
2022/02/07 13:14:18;;;;;;;1.27;0.50;;;23.40;30.20;;;;;;5052011;28;20021;-52
2022/02/07 13:16:45;;;;;;;2.33;0.73;;;23.40;30.20;;;;;;5047454;28;20033;-54
2022/02/07 13:19:20;;;;;;;1.35;0.50;;;23.40;30.20;;;;;;5037003;28;20021;-54
2022/02/07 13:21:49;;;;;;;3.20;1.10;;;23.40;30.20;;;;;;5038160;28;20402;-56
2022/02/07 13:24:20;;;;;;;2.05;0.80;;;23.40;30.30;;;;;;5051207;28;20039;-52
2022/02/07 13:26:56;;;;;;;1.45;0.70;;;23.40;30.40;;;;;;5054961;28;20044;-55
2022/02/07 13:29:34;;;;;;;2.00;0.50;;;23.40;30.40;;;;;;5050623;28;20032;-55
2022/02/07 13:32:00;;;;;;;3.78;0.70;;;23.40;30.40;;;;;;5052566;28;20043;-54
2022/02/07 13:34:29;;;;;;;2.65;0.70;;;23.40;30.40;;;;;;5039015;28;20072;-52
2022/02/07 13:37:20;;;;;;;3.15;0.75;;;23.40;30.40;;;;;;5044061;28;20332;-54
2022/02/07 13:40:01;;;;;;;2.70;0.95;;;23.40;31.00;;;;;;5044850;28;20040;-59
2022/02/07 13:42:41;;;;;;;2.83;0.73;;;23.40;30.60;;;;;;5049015;28;20117;-61
2022/02/07 13:45:18;;;;;;;1.25;0.50;;;23.40;30.80;;;;;;5053686;28;20033;-61
2022/02/07 13:47:49;;;;;;;1.85;0.82;;;23.40;31.00;;;;;;5054212;28;20044;-56
2022/02/07 13:50:22;;;;;;;1.75;0.55;;;23.40;31.20;;;;;;5046550;28;20367;-61
2022/02/07 13:52:51;;;;;;;1.25;0.50;;;23.50;31.40;;;;;;5037981;28;20100;-61
2022/02/07 13:55:20;;;;;;;1.17;0.43;;;23.50;31.50;;;;;;5037301;28;20107;-57
2022/02/07 13:57:55;;;;;;;1.88;0.70;;;23.50;31.60;;;;;;5047920;28;20033;-58
2022/02/07 14:00:23;;;;;;;1.50;0.80;;;23.60;31.80;;;;;;5039156;28;20025;-58
2022/02/07 14:03:01;;;;;;;2.15;0.85;;;23.60;31.80;;;;;;5046252;28;20443;-51
2022/02/07 14:05:36;;;;;;;3.75;0.90;;;23.60;31.90;;;;;;5045466;28;20037;-57
2022/02/07 14:08:02;;;;;;;3.17;0.60;;;23.60;31.90;;;;;;5035586;28;20039;-58
2022/02/07 14:10:35;;;;;;;1.88;0.80;;;23.70;31.90;;;;;;5050716;28;20025;-58
2022/02/07 14:13:01;;;;;;;1.88;0.82;;;23.70;31.80;;;;;;5035019;28;20036;-57
2022/02/07 14:15:26;;;;;;;1.27;0.70;;;23.70;31.80;;;;;;5025118;28;20448;-53
2022/02/07 14:17:52;;;;;;;2.10;0.70;;;23.70;31.70;;;;;;5032928;28;20029;-55
2022/02/07 14:20:24;;;;;;;1.58;0.70;;;23.80;31.70;;;;;;5044522;28;20401;-56
2022/02/07 14:22:49;;;;;;;1.25;0.50;;;23.70;31.50;;;;;;5051117;28;21109;-56
2022/02/07 14:25:15;;;;;;;0.70;0.40;;;23.80;31.60;;;;;;5053386;28;20056;-55
2022/02/07 14:27:41;;;;;;;3.28;0.82;;;23.80;31.70;;;;;;5051707;28;20511;-58
2022/02/07 14:30:08;;;;;;;1.80;0.60;;;23.80;31.70;;;;;;5045256;28;20399;-59
2022/02/07 14:32:34;;;;;;;7.90;0.63;;;23.80;31.70;;;;;;5053541;28;20025;-55
2022/02/07 14:35:00;;;;;;;1.45;0.70;;;23.80;31.70;;;;;;5043432;28;20126;-61
2022/02/07 14:37:25;;;;;;;1.75;0.60;;;23.80;31.70;;;;;;5048280;28;20040;-56
2022/02/07 14:39:51;;;;;;;2.33;0.60;;;23.90;31.70;;;;;;5047832;28;20028;-54
2022/02/07 14:42:17;;;;;;;0.95;0.50;;;23.90;31.70;;;;;;5041142;28;20040;-53
2022/02/07 14:44:57;;;;;;;2.58;0.60;;;23.90;31.70;;;;;;5040173;28;20337;-60
2022/02/07 14:47:39;;;;;;;1.92;0.95;;;23.90;31.50;;;;;;5041740;28;20024;-55
2022/02/07 14:50:05;;;;;;;12.70;7.70;;;23.90;31.30;;;;;;5052374;28;20024;-52
2022/02/07 14:52:33;;;;;;;15.05;9.70;;;23.90;30.90;;;;;;5042334;28;20029;-55
2022/02/07 14:54:58;;;;;;;14.13;10.15;;;23.90;30.70;;;;;;5044937;28;20024;-54
2022/02/07 14:57:24;;;;;;;14.05;8.68;;;23.90;30.40;;;;;;5041626;28;20025;-54
2022/02/07 14:59:50;;;;;;;10.63;6.57;;;23.80;30.10;;;;;;5022699;28;20106;-56
2022/02/07 15:02:15;;;;;;;8.45;5.80;;;23.80;30.00;;;;;;5041467;28;20108;-56
2022/02/07 15:04:41;;;;;;;8.63;5.05;;;23.80;29.80;;;;;;5045579;28;20040;-52
2022/02/07 15:07:07;;;;;;;6.93;3.67;;;23.80;29.70;;;;;;5053850;28;20029;-57
2022/02/07 15:09:33;;;;;;;6.72;3.80;;;23.70;29.40;;;;;;5050627;28;20044;-52
2022/02/07 15:12:00;;;;;;;5.07;2.75;;;23.70;29.40;;;;;;5052694;28;20047;-48
2022/02/07 15:14:26;;;;;;;4.28;2.83;;;23.70;29.30;;;;;;5050565;28;20337;-50
2022/02/07 15:16:52;;;;;;;4.40;2.33;;;23.70;29.20;;;;;;5046391;28;20027;-54
2022/02/07 15:19:18;;;;;;;4.20;2.08;;;23.70;29.10;;;;;;5037749;28;20029;-49
2022/02/07 15:21:44;;;;;;;4.10;2.08;;;23.70;29.10;;;;;;5043644;28;20022;-51
2022/02/07 15:24:09;;;;;;;4.18;1.88;;;23.70;29.00;;;;;;5037095;28;20041;-56
2022/02/07 15:26:35;;;;;;;3.90;1.90;;;23.60;28.90;;;;;;5049752;28;20079;-53
2022/02/07 15:29:01;;;;;;;2.97;1.60;;;23.60;28.90;;;;;;5039545;28;20037;-51
2022/02/07 15:31:31;;;;;;;2.53;1.25;;;23.60;28.90;;;;;;5056772;28;20029;-49